sensor_id;sensor_type;location;lat;lon;timestamp;temperature;humidity
4215;DHT22;2121;48.062;7.850;2022-08-25T00:01:45;20.70;99.50
4215;DHT22;2121;48.062;7.850;2022-08-25T00:04:17;20.60;99.80
4215;DHT22;2121;48.062;7.850;2022-08-25T00:06:44;20.40;99.90
4215;DHT22;2121;48.062;7.850;2022-08-25T00:09:14;20.30;99.90
4215;DHT22;2121;48.062;7.850;2022-08-25T00:11:42;20.20;99.90
4215;DHT22;2121;48.062;7.850;2022-08-25T00:14:11;20.10;99.90
4215;DHT22;2121;48.062;7.850;2022-08-25T00:16:39;19.90;99.90
4215;DHT22;2121;48.062;7.850;2022-08-25T00:19:08;19.80;99.90
4215;DHT22;2121;48.062;7.850;2022-08-25T00:21:37;19.70;99.90
4215;DHT22;2121;48.062;7.850;2022-08-25T00:24:06;19.70;99.90
4215;DHT22;2121;48.062;7.850;2022-08-25T00:26:33;19.60;99.90
4215;DHT22;2121;48.062;7.850;2022-08-25T00:28:59;19.60;99.90
4215;DHT22;2121;48.062;7.850;2022-08-25T00:31:25;19.60;99.90
4215;DHT22;2121;48.062;7.850;2022-08-25T00:33:51;19.60;99.90
4215;DHT22;2121;48.062;7.850;2022-08-25T00:36:18;19.60;99.90
4215;DHT22;2121;48.062;7.850;2022-08-25T00:38:46;19.50;99.90
4215;DHT22;2121;48.062;7.850;2022-08-25T00:41:19;19.60;99.90
4215;DHT22;2121;48.062;7.850;2022-08-25T00:43:56;19.50;99.90
4215;DHT22;2121;48.062;7.850;2022-08-25T00:46:27;19.60;99.90
4215;DHT22;2121;48.062;7.850;2022-08-25T00:49:32;19.50;99.90
4215;DHT22;2121;48.062;7.850;2022-08-25T00:52:08;19.40;99.90
4215;DHT22;2121;48.062;7.850;2022-08-25T00:57:39;19.30;99.90
4215;DHT22;2121;48.062;7.850;2022-08-25T01:00:16;19.20;99.90
4215;DHT22;2121;48.062;7.850;2022-08-25T01:02:47;19.20;99.90
4215;DHT22;2121;48.062;7.850;2022-08-25T01:05:13;19.10;99.90
4215;DHT22;2121;48.062;7.850;2022-08-25T01:07:42;19.00;99.90
4215;DHT22;2121;48.062;7.850;2022-08-25T01:10:08;19.00;99.90
4215;DHT22;2121;48.062;7.850;2022-08-25T01:12:35;18.90;99.90
4215;DHT22;2121;48.062;7.850;2022-08-25T01:15:03;18.90;99.90
4215;DHT22;2121;48.062;7.850;2022-08-25T01:17:48;18.80;99.90
4215;DHT22;2121;48.062;7.850;2022-08-25T01:20:16;18.70;99.90
4215;DHT22;2121;48.062;7.850;2022-08-25T01:22:44;18.70;99.90
4215;DHT22;2121;48.062;7.850;2022-08-25T01:28:19;18.60;99.90
4215;DHT22;2121;48.062;7.850;2022-08-25T01:30:45;18.50;99.90
4215;DHT22;2121;48.062;7.850;2022-08-25T01:33:11;18.50;99.90
4215;DHT22;2121;48.062;7.850;2022-08-25T01:35:39;18.50;99.90
4215;DHT22;2121;48.062;7.850;2022-08-25T01:38:06;18.50;99.90
4215;DHT22;2121;48.062;7.850;2022-08-25T01:40:34;18.50;99.90
4215;DHT22;2121;48.062;7.850;2022-08-25T01:43:10;18.40;99.90
4215;DHT22;2121;48.062;7.850;2022-08-25T01:45:45;18.40;99.90
4215;DHT22;2121;48.062;7.850;2022-08-25T01:48:13;18.40;99.90
4215;DHT22;2121;48.062;7.850;2022-08-25T01:50:40;18.30;99.90
4215;DHT22;2121;48.062;7.850;2022-08-25T01:53:18;18.20;99.90
4215;DHT22;2121;48.062;7.850;2022-08-25T01:55:47;18.20;99.90
4215;DHT22;2121;48.062;7.850;2022-08-25T01:58:24;18.20;99.90
4215;DHT22;2121;48.062;7.850;2022-08-25T02:00:53;18.20;99.90
4215;DHT22;2121;48.062;7.850;2022-08-25T02:03:21;18.20;99.90
4215;DHT22;2121;48.062;7.850;2022-08-25T02:05:49;18.10;99.90
4215;DHT22;2121;48.062;7.850;2022-08-25T02:08:16;18.10;99.90
4215;DHT22;2121;48.062;7.850;2022-08-25T02:10:42;18.10;99.90
4215;DHT22;2121;48.062;7.850;2022-08-25T02:13:08;18.00;99.90
4215;DHT22;2121;48.062;7.850;2022-08-25T02:15:39;18.00;99.90
4215;DHT22;2121;48.062;7.850;2022-08-25T02:18:07;18.00;99.90
4215;DHT22;2121;48.062;7.850;2022-08-25T02:20:33;18.00;99.90
4215;DHT22;2121;48.062;7.850;2022-08-25T02:22:59;18.00;99.90
4215;DHT22;2121;48.062;7.850;2022-08-25T02:25:24;17.90;99.90
4215;DHT22;2121;48.062;7.850;2022-08-25T02:27:50;17.90;99.90
4215;DHT22;2121;48.062;7.850;2022-08-25T02:30:17;17.90;99.90
4215;DHT22;2121;48.062;7.850;2022-08-25T02:32:42;18.00;99.90
4215;DHT22;2121;48.062;7.850;2022-08-25T02:35:09;17.90;99.90
4215;DHT22;2121;48.062;7.850;2022-08-25T02:37:35;17.90;99.90
4215;DHT22;2121;48.062;7.850;2022-08-25T02:40:01;17.90;99.90
4215;DHT22;2121;48.062;7.850;2022-08-25T02:42:27;17.80;99.90
4215;DHT22;2121;48.062;7.850;2022-08-25T02:44:53;17.70;99.90
4215;DHT22;2121;48.062;7.850;2022-08-25T02:47:19;17.60;99.90
4215;DHT22;2121;48.062;7.850;2022-08-25T02:49:46;17.50;99.90
4215;DHT22;2121;48.062;7.850;2022-08-25T02:52:13;17.60;99.90
4215;DHT22;2121;48.062;7.850;2022-08-25T02:54:40;17.60;99.90
4215;DHT22;2121;48.062;7.850;2022-08-25T02:57:06;17.60;99.90
4215;DHT22;2121;48.062;7.850;2022-08-25T02:59:32;17.60;99.90
4215;DHT22;2121;48.062;7.850;2022-08-25T03:01:59;17.60;99.90
4215;DHT22;2121;48.062;7.850;2022-08-25T03:04:25;17.70;99.90
4215;DHT22;2121;48.062;7.850;2022-08-25T03:06:51;17.80;99.90
4215;DHT22;2121;48.062;7.850;2022-08-25T03:09:17;17.90;99.90
4215;DHT22;2121;48.062;7.850;2022-08-25T03:11:43;17.90;99.90
4215;DHT22;2121;48.062;7.850;2022-08-25T03:14:09;17.90;99.90
4215;DHT22;2121;48.062;7.850;2022-08-25T03:16:36;17.90;99.90
4215;DHT22;2121;48.062;7.850;2022-08-25T03:19:03;17.90;99.90
4215;DHT22;2121;48.062;7.850;2022-08-25T03:21:29;17.90;99.90
4215;DHT22;2121;48.062;7.850;2022-08-25T03:23:56;17.90;99.90
4215;DHT22;2121;48.062;7.850;2022-08-25T03:26:22;17.90;99.90
4215;DHT22;2121;48.062;7.850;2022-08-25T03:29:07;17.90;99.90
4215;DHT22;2121;48.062;7.850;2022-08-25T03:31:34;17.90;99.90
4215;DHT22;2121;48.062;7.850;2022-08-25T03:34:01;17.80;99.90
4215;DHT22;2121;48.062;7.850;2022-08-25T03:36:27;17.90;99.90
4215;DHT22;2121;48.062;7.850;2022-08-25T03:38:53;17.90;99.90
4215;DHT22;2121;48.062;7.850;2022-08-25T03:41:25;17.70;99.90
4215;DHT22;2121;48.062;7.850;2022-08-25T03:43:57;17.60;99.90
4215;DHT22;2121;48.062;7.850;2022-08-25T03:46:31;17.50;99.90
4215;DHT22;2121;48.062;7.850;2022-08-25T03:49:00;17.40;99.90
4215;DHT22;2121;48.062;7.850;2022-08-25T03:51:39;17.40;99.90
4215;DHT22;2121;48.062;7.850;2022-08-25T03:54:07;17.30;99.90
4215;DHT22;2121;48.062;7.850;2022-08-25T03:56:35;17.10;99.90
4215;DHT22;2121;48.062;7.850;2022-08-25T03:59:02;17.00;99.90
4215;DHT22;2121;48.062;7.850;2022-08-25T04:01:28;16.90;99.90
4215;DHT22;2121;48.062;7.850;2022-08-25T04:03:54;16.90;99.90
4215;DHT22;2121;48.062;7.850;2022-08-25T04:06:20;16.80;99.90
4215;DHT22;2121;48.062;7.850;2022-08-25T04:08:46;16.70;99.90
4215;DHT22;2121;48.062;7.850;2022-08-25T04:11:17;16.70;99.90
4215;DHT22;2121;48.062;7.850;2022-08-25T04:13:46;16.80;99.90
4215;DHT22;2121;48.062;7.850;2022-08-25T04:16:18;16.70;99.90
4215;DHT22;2121;48.062;7.850;2022-08-25T04:18:48;16.70;99.90
4215;DHT22;2121;48.062;7.850;2022-08-25T04:21:15;16.70;99.90
4215;DHT22;2121;48.062;7.850;2022-08-25T04:23:43;16.70;99.90
4215;DHT22;2121;48.062;7.850;2022-08-25T04:26:12;16.70;99.90
4215;DHT22;2121;48.062;7.850;2022-08-25T04:28:40;16.80;99.90
4215;DHT22;2121;48.062;7.850;2022-08-25T04:31:08;16.80;99.90
4215;DHT22;2121;48.062;7.850;2022-08-25T04:33:38;16.80;99.90
4215;DHT22;2121;48.062;7.850;2022-08-25T04:36:05;16.80;99.90
4215;DHT22;2121;48.062;7.850;2022-08-25T04:38:32;16.70;99.90
4215;DHT22;2121;48.062;7.850;2022-08-25T04:41:00;16.60;99.90
4215;DHT22;2121;48.062;7.850;2022-08-25T04:43:27;16.60;99.90
4215;DHT22;2121;48.062;7.850;2022-08-25T04:45:54;16.60;99.90
4215;DHT22;2121;48.062;7.850;2022-08-25T04:48:20;16.60;99.90
4215;DHT22;2121;48.062;7.850;2022-08-25T04:50:46;16.60;99.90
4215;DHT22;2121;48.062;7.850;2022-08-25T04:53:12;16.70;99.90
4215;DHT22;2121;48.062;7.850;2022-08-25T04:55:44;16.70;99.90
4215;DHT22;2121;48.062;7.850;2022-08-25T04:58:12;16.70;99.90
4215;DHT22;2121;48.062;7.850;2022-08-25T05:00:39;16.70;99.90
4215;DHT22;2121;48.062;7.850;2022-08-25T05:03:06;16.70;99.90
4215;DHT22;2121;48.062;7.850;2022-08-25T05:05:35;16.70;99.90
4215;DHT22;2121;48.062;7.850;2022-08-25T05:08:03;16.70;99.90
4215;DHT22;2121;48.062;7.850;2022-08-25T05:10:30;16.60;99.90
4215;DHT22;2121;48.062;7.850;2022-08-25T05:12:56;16.50;99.90
4215;DHT22;2121;48.062;7.850;2022-08-25T05:15:22;16.60;99.90
4215;DHT22;2121;48.062;7.850;2022-08-25T05:18:08;16.70;99.90
4215;DHT22;2121;48.062;7.850;2022-08-25T05:20:37;16.80;99.90
4215;DHT22;2121;48.062;7.850;2022-08-25T05:23:03;17.00;99.90
4215;DHT22;2121;48.062;7.850;2022-08-25T05:25:29;17.10;99.90
4215;DHT22;2121;48.062;7.850;2022-08-25T05:27:55;17.20;99.90
4215;DHT22;2121;48.062;7.850;2022-08-25T05:30:21;17.20;99.90
4215;DHT22;2121;48.062;7.850;2022-08-25T05:32:47;17.30;99.90
4215;DHT22;2121;48.062;7.850;2022-08-25T05:35:18;17.40;99.90
4215;DHT22;2121;48.062;7.850;2022-08-25T05:37:45;17.50;99.90
4215;DHT22;2121;48.062;7.850;2022-08-25T05:40:11;17.60;99.90
4215;DHT22;2121;48.062;7.850;2022-08-25T05:42:37;17.70;99.90
4215;DHT22;2121;48.062;7.850;2022-08-25T05:45:05;18.00;99.90
4215;DHT22;2121;48.062;7.850;2022-08-25T05:47:32;18.10;99.90
4215;DHT22;2121;48.062;7.850;2022-08-25T05:49:58;18.20;99.90
4215;DHT22;2121;48.062;7.850;2022-08-25T05:52:26;18.40;99.90
4215;DHT22;2121;48.062;7.850;2022-08-25T05:54:52;18.50;99.90
4215;DHT22;2121;48.062;7.850;2022-08-25T05:57:18;18.70;99.90
4215;DHT22;2121;48.062;7.850;2022-08-25T05:59:44;18.80;99.90
4215;DHT22;2121;48.062;7.850;2022-08-25T06:02:10;18.70;99.90
4215;DHT22;2121;48.062;7.850;2022-08-25T06:04:54;18.70;99.90
4215;DHT22;2121;48.062;7.850;2022-08-25T06:07:22;18.80;99.90
4215;DHT22;2121;48.062;7.850;2022-08-25T06:09:48;18.80;99.90
4215;DHT22;2121;48.062;7.850;2022-08-25T06:12:15;18.90;99.90
4215;DHT22;2121;48.062;7.850;2022-08-25T06:14:41;19.00;99.90
4215;DHT22;2121;48.062;7.850;2022-08-25T06:17:08;19.10;99.90
4215;DHT22;2121;48.062;7.850;2022-08-25T06:19:33;19.30;99.90
4215;DHT22;2121;48.062;7.850;2022-08-25T06:21:59;19.50;99.90
4215;DHT22;2121;48.062;7.850;2022-08-25T06:24:26;19.50;99.90
4215;DHT22;2121;48.062;7.850;2022-08-25T06:26:53;19.60;99.90
4215;DHT22;2121;48.062;7.850;2022-08-25T06:29:19;19.60;99.90
4215;DHT22;2121;48.062;7.850;2022-08-25T06:31:45;19.70;99.90
4215;DHT22;2121;48.062;7.850;2022-08-25T06:34:11;19.80;99.90
4215;DHT22;2121;48.062;7.850;2022-08-25T06:36:38;19.90;99.90
4215;DHT22;2121;48.062;7.850;2022-08-25T06:39:05;20.10;99.90
4215;DHT22;2121;48.062;7.850;2022-08-25T06:41:31;20.10;99.90
4215;DHT22;2121;48.062;7.850;2022-08-25T06:43:57;20.10;99.90
4215;DHT22;2121;48.062;7.850;2022-08-25T06:46:25;20.10;99.90
4215;DHT22;2121;48.062;7.850;2022-08-25T06:48:52;20.10;99.90
4215;DHT22;2121;48.062;7.850;2022-08-25T06:51:20;20.20;99.90
4215;DHT22;2121;48.062;7.850;2022-08-25T06:53:48;20.30;99.90
4215;DHT22;2121;48.062;7.850;2022-08-25T06:56:16;20.40;99.90
4215;DHT22;2121;48.062;7.850;2022-08-25T06:58:43;20.70;99.90
4215;DHT22;2121;48.062;7.850;2022-08-25T07:01:16;20.80;99.90
4215;DHT22;2121;48.062;7.850;2022-08-25T07:03:42;20.90;99.90
4215;DHT22;2121;48.062;7.850;2022-08-25T07:06:10;21.10;99.90
4215;DHT22;2121;48.062;7.850;2022-08-25T07:08:36;21.10;99.90
4215;DHT22;2121;48.062;7.850;2022-08-25T07:11:08;21.20;99.90
4215;DHT22;2121;48.062;7.850;2022-08-25T07:13:36;21.30;99.90
4215;DHT22;2121;48.062;7.850;2022-08-25T07:16:04;21.40;99.90
4215;DHT22;2121;48.062;7.850;2022-08-25T07:18:31;21.50;99.90
4215;DHT22;2121;48.062;7.850;2022-08-25T07:20:57;21.60;99.90
4215;DHT22;2121;48.062;7.850;2022-08-25T07:23:24;21.70;99.90
4215;DHT22;2121;48.062;7.850;2022-08-25T07:25:51;21.80;99.90
4215;DHT22;2121;48.062;7.850;2022-08-25T07:28:18;21.80;99.90
4215;DHT22;2121;48.062;7.850;2022-08-25T07:30:44;21.80;99.90
4215;DHT22;2121;48.062;7.850;2022-08-25T07:33:10;21.90;99.90
4215;DHT22;2121;48.062;7.850;2022-08-25T07:35:37;22.00;99.90
4215;DHT22;2121;48.062;7.850;2022-08-25T07:38:05;22.10;99.90
4215;DHT22;2121;48.062;7.850;2022-08-25T07:40:34;22.20;99.90
4215;DHT22;2121;48.062;7.850;2022-08-25T07:43:04;22.10;99.90
4215;DHT22;2121;48.062;7.850;2022-08-25T07:45:34;22.30;99.90
4215;DHT22;2121;48.062;7.850;2022-08-25T07:48:09;22.40;99.90
4215;DHT22;2121;48.062;7.850;2022-08-25T07:50:38;22.50;99.90
4215;DHT22;2121;48.062;7.850;2022-08-25T07:53:10;22.50;99.90
4215;DHT22;2121;48.062;7.850;2022-08-25T07:55:37;22.60;99.90
4215;DHT22;2121;48.062;7.850;2022-08-25T07:58:08;22.60;99.90
4215;DHT22;2121;48.062;7.850;2022-08-25T08:00:36;22.70;99.90
4215;DHT22;2121;48.062;7.850;2022-08-25T08:03:05;22.80;99.90
4215;DHT22;2121;48.062;7.850;2022-08-25T08:05:32;22.90;99.90
4215;DHT22;2121;48.062;7.850;2022-08-25T08:07:59;22.90;99.90
4215;DHT22;2121;48.062;7.850;2022-08-25T08:10:25;22.90;99.90
4215;DHT22;2121;48.062;7.850;2022-08-25T08:12:52;23.00;99.90
4215;DHT22;2121;48.062;7.850;2022-08-25T08:15:18;23.10;99.90
4215;DHT22;2121;48.062;7.850;2022-08-25T08:17:45;23.20;99.90
4215;DHT22;2121;48.062;7.850;2022-08-25T08:20:12;23.30;99.90
4215;DHT22;2121;48.062;7.850;2022-08-25T08:22:40;23.50;99.90
4215;DHT22;2121;48.062;7.850;2022-08-25T08:25:09;23.70;99.90
4215;DHT22;2121;48.062;7.850;2022-08-25T08:27:35;23.60;99.90
4215;DHT22;2121;48.062;7.850;2022-08-25T08:30:03;23.90;99.90
4215;DHT22;2121;48.062;7.850;2022-08-25T08:32:29;23.90;99.90
4215;DHT22;2121;48.062;7.850;2022-08-25T08:34:55;24.00;99.90
4215;DHT22;2121;48.062;7.850;2022-08-25T08:37:22;24.00;99.90
4215;DHT22;2121;48.062;7.850;2022-08-25T08:39:48;24.10;99.60
4215;DHT22;2121;48.062;7.850;2022-08-25T08:45:23;24.20;98.90
4215;DHT22;2121;48.062;7.850;2022-08-25T08:51:19;24.30;98.70
4215;DHT22;2121;48.062;7.850;2022-08-25T08:54:09;24.50;98.20
4215;DHT22;2121;48.062;7.850;2022-08-25T08:56:41;24.70;97.80
4215;DHT22;2121;48.062;7.850;2022-08-25T08:59:12;24.80;97.20
4215;DHT22;2121;48.062;7.850;2022-08-25T09:01:50;24.90;97.00
4215;DHT22;2121;48.062;7.850;2022-08-25T09:04:42;25.10;96.90
4215;DHT22;2121;48.062;7.850;2022-08-25T09:07:21;25.40;96.50
4215;DHT22;2121;48.062;7.850;2022-08-25T09:09:50;25.50;96.20
4215;DHT22;2121;48.062;7.850;2022-08-25T09:12:36;25.50;95.80
4215;DHT22;2121;48.062;7.850;2022-08-25T09:15:27;25.50;96.00
4215;DHT22;2121;48.062;7.850;2022-08-25T09:21:15;26.00;95.60
4215;DHT22;2121;48.062;7.850;2022-08-25T09:27:22;26.10;94.00
4215;DHT22;2121;48.062;7.850;2022-08-25T09:30:23;26.10;93.80
4215;DHT22;2121;48.062;7.850;2022-08-25T09:32:53;26.50;94.10
4215;DHT22;2121;48.062;7.850;2022-08-25T09:35:34;26.80;93.50
4215;DHT22;2121;48.062;7.850;2022-08-25T09:38:07;27.00;92.90
4215;DHT22;2121;48.062;7.850;2022-08-25T09:40:39;27.10;92.80
4215;DHT22;2121;48.062;7.850;2022-08-25T09:48:49;27.80;92.70
4215;DHT22;2121;48.062;7.850;2022-08-25T09:51:31;27.60;92.10
4215;DHT22;2121;48.062;7.850;2022-08-25T09:54:15;27.50;91.80
4215;DHT22;2121;48.062;7.850;2022-08-25T09:59:35;27.80;91.60
4215;DHT22;2121;48.062;7.850;2022-08-25T10:04:50;27.60;90.90
4215;DHT22;2121;48.062;7.850;2022-08-25T10:07:26;27.60;91.20
4215;DHT22;2121;48.062;7.850;2022-08-25T10:10:15;27.80;90.60
4215;DHT22;2121;48.062;7.850;2022-08-25T10:12:44;28.20;90.70
4215;DHT22;2121;48.062;7.850;2022-08-25T10:15:20;28.10;90.90
4215;DHT22;2121;48.062;7.850;2022-08-25T10:17:50;28.20;90.10
4215;DHT22;2121;48.062;7.850;2022-08-25T10:20:21;28.40;90.00
4215;DHT22;2121;48.062;7.850;2022-08-25T10:22:49;28.30;89.30
4215;DHT22;2121;48.062;7.850;2022-08-25T10:25:28;28.20;90.10
4215;DHT22;2121;48.062;7.850;2022-08-25T10:31:39;28.60;88.60
4215;DHT22;2121;48.062;7.850;2022-08-25T10:37:02;28.70;87.90
4215;DHT22;2121;48.062;7.850;2022-08-25T10:40:02;28.70;87.90
4215;DHT22;2121;48.062;7.850;2022-08-25T10:45:49;29.30;86.60
4215;DHT22;2121;48.062;7.850;2022-08-25T10:48:27;29.50;85.10
4215;DHT22;2121;48.062;7.850;2022-08-25T11:02:58;29.60;82.00
4215;DHT22;2121;48.062;7.850;2022-08-25T11:05:58;29.80;81.30
4215;DHT22;2121;48.062;7.850;2022-08-25T11:08:48;29.80;79.70
4215;DHT22;2121;48.062;7.850;2022-08-25T11:11:23;29.60;81.20
4215;DHT22;2121;48.062;7.850;2022-08-25T11:13:55;30.20;81.20
4215;DHT22;2121;48.062;7.850;2022-08-25T11:16:39;30.50;77.40
4215;DHT22;2121;48.062;7.850;2022-08-25T11:22:19;30.20;76.20
4215;DHT22;2121;48.062;7.850;2022-08-25T11:25:23;30.50;74.90
4215;DHT22;2121;48.062;7.850;2022-08-25T11:30:52;30.80;76.70
4215;DHT22;2121;48.062;7.850;2022-08-25T11:33:23;30.80;75.50
4215;DHT22;2121;48.062;7.850;2022-08-25T11:35:57;30.80;75.10
4215;DHT22;2121;48.062;7.850;2022-08-25T11:50:57;31.70;70.30
4215;DHT22;2121;48.062;7.850;2022-08-25T11:53:34;31.80;70.00
4215;DHT22;2121;48.062;7.850;2022-08-25T11:56:03;31.70;68.00
4215;DHT22;2121;48.062;7.850;2022-08-25T11:58:32;31.80;67.00
4215;DHT22;2121;48.062;7.850;2022-08-25T12:01:02;32.10;68.40
4215;DHT22;2121;48.062;7.850;2022-08-25T12:16:43;32.10;65.10
4215;DHT22;2121;48.062;7.850;2022-08-25T12:19:48;32.30;65.10
4215;DHT22;2121;48.062;7.850;2022-08-25T12:25:00;31.70;66.80
4215;DHT22;2121;48.062;7.850;2022-08-25T12:27:41;31.90;66.90
4215;DHT22;2121;48.062;7.850;2022-08-25T12:30:19;32.30;66.50
4215;DHT22;2121;48.062;7.850;2022-08-25T12:41:15;35.80;61.20
4215;DHT22;2121;48.062;7.850;2022-08-25T12:44:19;36.70;60.80
4215;DHT22;2121;48.062;7.850;2022-08-25T12:47:11;37.40;57.80
4215;DHT22;2121;48.062;7.850;2022-08-25T12:49:43;36.70;59.30
4215;DHT22;2121;48.062;7.850;2022-08-25T12:52:14;37.20;59.00
4215;DHT22;2121;48.062;7.850;2022-08-25T12:54:53;37.80;59.10
4215;DHT22;2121;48.062;7.850;2022-08-25T12:57:44;38.90;57.40
4215;DHT22;2121;48.062;7.850;2022-08-25T13:00:53;40.00;55.80
4215;DHT22;2121;48.062;7.850;2022-08-25T13:04:13;41.10;54.00
4215;DHT22;2121;48.062;7.850;2022-08-25T13:10:54;43.60;50.70
4215;DHT22;2121;48.062;7.850;2022-08-25T13:13:09;45.30;49.90
4215;DHT22;2121;48.062;7.850;2022-08-25T13:15:44;45.40;49.00
4215;DHT22;2121;48.062;7.850;2022-08-25T13:18:18;45.50;48.10
4215;DHT22;2121;48.062;7.850;2022-08-25T13:21:00;47.00;46.20
4215;DHT22;2121;48.062;7.850;2022-08-25T13:23:41;47.60;45.90
4215;DHT22;2121;48.062;7.850;2022-08-25T13:26:31;49.20;44.60
4215;DHT22;2121;48.062;7.850;2022-08-25T13:31:34;43.20;46.40
4215;DHT22;2121;48.062;7.850;2022-08-25T13:34:14;42.40;48.30
4215;DHT22;2121;48.062;7.850;2022-08-25T13:36:44;43.10;48.20
4215;DHT22;2121;48.062;7.850;2022-08-25T13:39:30;41.90;47.80
4215;DHT22;2121;48.062;7.850;2022-08-25T13:42:02;38.50;49.90
4215;DHT22;2121;48.062;7.850;2022-08-25T13:44:34;37.10;51.40
4215;DHT22;2121;48.062;7.850;2022-08-25T13:47:32;36.30;53.10
4215;DHT22;2121;48.062;7.850;2022-08-25T13:50:30;35.10;54.40
4215;DHT22;2121;48.062;7.850;2022-08-25T13:53:15;33.80;55.50
4215;DHT22;2121;48.062;7.850;2022-08-25T13:55:53;33.20;57.30
4215;DHT22;2121;48.062;7.850;2022-08-25T13:58:25;32.70;57.60
4215;DHT22;2121;48.062;7.850;2022-08-25T14:03:55;33.70;56.50
4215;DHT22;2121;48.062;7.850;2022-08-25T14:06:25;33.70;56.90
4215;DHT22;2121;48.062;7.850;2022-08-25T14:11:39;33.30;57.70
4215;DHT22;2121;48.062;7.850;2022-08-25T14:14:32;33.80;55.00
4215;DHT22;2121;48.062;7.850;2022-08-25T14:17:02;33.80;55.50
4215;DHT22;2121;48.062;7.850;2022-08-25T14:19:33;34.00;55.70
4215;DHT22;2121;48.062;7.850;2022-08-25T14:22:00;33.80;56.90
4215;DHT22;2121;48.062;7.850;2022-08-25T14:24:31;33.50;56.50
4215;DHT22;2121;48.062;7.850;2022-08-25T14:26:58;33.50;55.90
4215;DHT22;2121;48.062;7.850;2022-08-25T14:29:24;33.70;55.50
4215;DHT22;2121;48.062;7.850;2022-08-25T14:31:50;34.30;54.30
4215;DHT22;2121;48.062;7.850;2022-08-25T14:34:28;34.60;51.70
4215;DHT22;2121;48.062;7.850;2022-08-25T14:36:57;35.40;51.80
4215;DHT22;2121;48.062;7.850;2022-08-25T14:39:24;37.50;49.00
4215;DHT22;2121;48.062;7.850;2022-08-25T14:41:51;41.50;46.70
4215;DHT22;2121;48.062;7.850;2022-08-25T14:44:17;43.70;43.30
4215;DHT22;2121;48.062;7.850;2022-08-25T14:46:52;44.90;41.20
4215;DHT22;2121;48.062;7.850;2022-08-25T14:49:24;46.20;40.60
4215;DHT22;2121;48.062;7.850;2022-08-25T14:51:55;46.30;39.50
4215;DHT22;2121;48.062;7.850;2022-08-25T14:54:24;48.00;39.50
4215;DHT22;2121;48.062;7.850;2022-08-25T14:56:51;48.30;38.20
4215;DHT22;2121;48.062;7.850;2022-08-25T14:59:17;50.20;36.40
4215;DHT22;2121;48.062;7.850;2022-08-25T15:01:43;49.50;35.30
4215;DHT22;2121;48.062;7.850;2022-08-25T15:04:11;49.10;34.10
4215;DHT22;2121;48.062;7.850;2022-08-25T15:06:40;47.20;35.10
4215;DHT22;2121;48.062;7.850;2022-08-25T15:09:09;46.40;34.80
4215;DHT22;2121;48.062;7.850;2022-08-25T15:11:43;46.10;35.00
4215;DHT22;2121;48.062;7.850;2022-08-25T15:14:11;46.80;34.10
4215;DHT22;2121;48.062;7.850;2022-08-25T15:16:48;48.80;32.70
4215;DHT22;2121;48.062;7.850;2022-08-25T15:19:19;48.50;33.20
4215;DHT22;2121;48.062;7.850;2022-08-25T15:21:48;48.60;32.40
4215;DHT22;2121;48.062;7.850;2022-08-25T15:24:15;49.50;31.60
4215;DHT22;2121;48.062;7.850;2022-08-25T15:26:50;49.40;31.00
4215;DHT22;2121;48.062;7.850;2022-08-25T15:29:21;49.40;30.10
4215;DHT22;2121;48.062;7.850;2022-08-25T15:31:48;50.10;30.30
4215;DHT22;2121;48.062;7.850;2022-08-25T15:34:14;50.60;29.50
4215;DHT22;2121;48.062;7.850;2022-08-25T15:36:40;51.20;28.90
4215;DHT22;2121;48.062;7.850;2022-08-25T15:39:07;51.50;29.70
4215;DHT22;2121;48.062;7.850;2022-08-25T15:41:33;51.60;29.40
4215;DHT22;2121;48.062;7.850;2022-08-25T15:44:01;51.80;29.70
4215;DHT22;2121;48.062;7.850;2022-08-25T15:46:28;52.10;29.70
4215;DHT22;2121;48.062;7.850;2022-08-25T15:48:56;51.00;29.40
4215;DHT22;2121;48.062;7.850;2022-08-25T15:51:24;50.20;30.10
4215;DHT22;2121;48.062;7.850;2022-08-25T15:53:51;50.00;32.00
4215;DHT22;2121;48.062;7.850;2022-08-25T15:56:17;50.70;30.10
4215;DHT22;2121;48.062;7.850;2022-08-25T15:58:46;50.90;30.00
4215;DHT22;2121;48.062;7.850;2022-08-25T16:01:18;50.90;29.50
4215;DHT22;2121;48.062;7.850;2022-08-25T16:03:48;51.50;29.20
4215;DHT22;2121;48.062;7.850;2022-08-25T16:06:15;50.80;29.40
4215;DHT22;2121;48.062;7.850;2022-08-25T16:08:41;50.80;29.80
4215;DHT22;2121;48.062;7.850;2022-08-25T16:11:18;50.70;29.50
4215;DHT22;2121;48.062;7.850;2022-08-25T16:13:47;49.70;29.90
4215;DHT22;2121;48.062;7.850;2022-08-25T16:16:14;47.60;32.20
4215;DHT22;2121;48.062;7.850;2022-08-25T16:18:41;46.10;31.90
4215;DHT22;2121;48.062;7.850;2022-08-25T16:21:10;45.80;32.90
4215;DHT22;2121;48.062;7.850;2022-08-25T16:23:38;46.70;32.80
4215;DHT22;2121;48.062;7.850;2022-08-25T16:26:06;47.10;33.30
4215;DHT22;2121;48.062;7.850;2022-08-25T16:28:37;47.10;34.00
4215;DHT22;2121;48.062;7.850;2022-08-25T16:31:04;46.30;34.20
4215;DHT22;2121;48.062;7.850;2022-08-25T16:33:30;45.70;35.50
4215;DHT22;2121;48.062;7.850;2022-08-25T16:36:12;46.50;34.80
4215;DHT22;2121;48.062;7.850;2022-08-25T16:38:41;46.90;34.50
4215;DHT22;2121;48.062;7.850;2022-08-25T16:41:13;47.10;33.20
4215;DHT22;2121;48.062;7.850;2022-08-25T16:43:44;45.80;33.40
4215;DHT22;2121;48.062;7.850;2022-08-25T16:46:12;46.70;33.20
4215;DHT22;2121;48.062;7.850;2022-08-25T16:48:40;47.90;33.50
4215;DHT22;2121;48.062;7.850;2022-08-25T16:51:15;48.50;31.80
4215;DHT22;2121;48.062;7.850;2022-08-25T16:53:44;47.90;32.40
4215;DHT22;2121;48.062;7.850;2022-08-25T16:56:29;47.00;34.70
4215;DHT22;2121;48.062;7.850;2022-08-25T16:58:57;46.90;34.90
4215;DHT22;2121;48.062;7.850;2022-08-25T17:01:25;46.20;35.20
4215;DHT22;2121;48.062;7.850;2022-08-25T17:03:53;45.10;36.40
4215;DHT22;2121;48.062;7.850;2022-08-25T17:06:21;44.90;36.70
4215;DHT22;2121;48.062;7.850;2022-08-25T17:08:48;45.00;36.90
4215;DHT22;2121;48.062;7.850;2022-08-25T17:11:23;45.70;37.50
4215;DHT22;2121;48.062;7.850;2022-08-25T17:13:54;46.80;37.40
4215;DHT22;2121;48.062;7.850;2022-08-25T17:16:24;46.60;36.90
4215;DHT22;2121;48.062;7.850;2022-08-25T17:18:53;46.30;37.10
4215;DHT22;2121;48.062;7.850;2022-08-25T17:21:20;45.60;37.90
4215;DHT22;2121;48.062;7.850;2022-08-25T17:23:46;45.70;38.90
4215;DHT22;2121;48.062;7.850;2022-08-25T17:26:15;45.60;37.70
4215;DHT22;2121;48.062;7.850;2022-08-25T17:28:42;45.20;38.30
4215;DHT22;2121;48.062;7.850;2022-08-25T17:31:09;44.90;39.30
4215;DHT22;2121;48.062;7.850;2022-08-25T17:33:37;44.80;39.60
4215;DHT22;2121;48.062;7.850;2022-08-25T17:36:03;44.40;40.70
4215;DHT22;2121;48.062;7.850;2022-08-25T17:38:31;43.80;40.90
4215;DHT22;2121;48.062;7.850;2022-08-25T17:41:00;42.70;42.30
4215;DHT22;2121;48.062;7.850;2022-08-25T17:43:28;40.80;44.20
4215;DHT22;2121;48.062;7.850;2022-08-25T17:45:56;38.80;46.00
4215;DHT22;2121;48.062;7.850;2022-08-25T17:48:23;37.20;48.10
4215;DHT22;2121;48.062;7.850;2022-08-25T17:50:50;36.00;51.10
4215;DHT22;2121;48.062;7.850;2022-08-25T17:53:16;35.00;51.70
4215;DHT22;2121;48.062;7.850;2022-08-25T17:55:43;34.20;53.00
4215;DHT22;2121;48.062;7.850;2022-08-25T17:58:12;33.60;54.10
4215;DHT22;2121;48.062;7.850;2022-08-25T18:00:41;32.90;54.70
4215;DHT22;2121;48.062;7.850;2022-08-25T18:03:09;32.20;57.70
4215;DHT22;2121;48.062;7.850;2022-08-25T18:05:36;31.60;59.40
4215;DHT22;2121;48.062;7.850;2022-08-25T18:08:03;31.10;61.10
4215;DHT22;2121;48.062;7.850;2022-08-25T18:10:30;30.80;60.90
4215;DHT22;2121;48.062;7.850;2022-08-25T18:12:56;30.40;62.80